sensor_id;sensor_type;location;lat;lon;timestamp;P1;durP1;ratioP1;P2;durP2;ratioP2
30048;SDS011;16879;50.852;15.602;2023-02-13T00:01:36;24.60;;;9.75;;
30048;SDS011;16879;50.852;15.602;2023-02-13T00:04:02;24.55;;;10.25;;
30048;SDS011;16879;50.852;15.602;2023-02-13T00:06:28;21.48;;;9.05;;
30048;SDS011;16879;50.852;15.602;2023-02-13T00:08:55;15.98;;;8.65;;
30048;SDS011;16879;50.852;15.602;2023-02-13T00:11:21;16.00;;;8.45;;
30048;SDS011;16879;50.852;15.602;2023-02-13T00:13:47;13.63;;;7.10;;
30048;SDS011;16879;50.852;15.602;2023-02-13T00:16:13;14.15;;;7.07;;
30048;SDS011;16879;50.852;15.602;2023-02-13T00:18:39;14.07;;;7.43;;
30048;SDS011;16879;50.852;15.602;2023-02-13T00:21:07;15.60;;;7.03;;
30048;SDS011;16879;50.852;15.602;2023-02-13T00:23:33;13.32;;;6.43;;
30048;SDS011;16879;50.852;15.602;2023-02-13T00:26:03;11.73;;;5.35;;
30048;SDS011;16879;50.852;15.602;2023-02-13T00:28:30;11.90;;;5.47;;
30048;SDS011;16879;50.852;15.602;2023-02-13T00:31:13;10.15;;;6.47;;
30048;SDS011;16879;50.852;15.602;2023-02-13T00:33:39;8.52;;;5.38;;
30048;SDS011;16879;50.852;15.602;2023-02-13T00:36:06;11.63;;;6.00;;
30048;SDS011;16879;50.852;15.602;2023-02-13T00:38:33;8.85;;;4.93;;
30048;SDS011;16879;50.852;15.602;2023-02-13T00:40:59;10.80;;;6.50;;
30048;SDS011;16879;50.852;15.602;2023-02-13T00:43:25;19.92;;;8.57;;
30048;SDS011;16879;50.852;15.602;2023-02-13T00:45:51;14.30;;;7.47;;
30048;SDS011;16879;50.852;15.602;2023-02-13T00:48:17;19.20;;;9.77;;
30048;SDS011;16879;50.852;15.602;2023-02-13T00:50:44;16.65;;;8.80;;
30048;SDS011;16879;50.852;15.602;2023-02-13T00:53:11;20.67;;;8.77;;
30048;SDS011;16879;50.852;15.602;2023-02-13T00:55:37;13.48;;;5.97;;
30048;SDS011;16879;50.852;15.602;2023-02-13T00:58:03;34.38;;;11.55;;
30048;SDS011;16879;50.852;15.602;2023-02-13T01:00:29;24.02;;;10.10;;
30048;SDS011;16879;50.852;15.602;2023-02-13T01:02:55;22.85;;;9.43;;
30048;SDS011;16879;50.852;15.602;2023-02-13T01:05:21;18.80;;;8.85;;
30048;SDS011;16879;50.852;15.602;2023-02-13T01:07:47;27.05;;;10.55;;
30048;SDS011;16879;50.852;15.602;2023-02-13T01:10:14;26.50;;;9.23;;
30048;SDS011;16879;50.852;15.602;2023-02-13T01:12:40;35.55;;;11.88;;
30048;SDS011;16879;50.852;15.602;2023-02-13T01:15:06;13.60;;;7.47;;
30048;SDS011;16879;50.852;15.602;2023-02-13T01:17:32;37.85;;;15.40;;
30048;SDS011;16879;50.852;15.602;2023-02-13T01:19:58;21.65;;;9.02;;
30048;SDS011;16879;50.852;15.602;2023-02-13T01:22:24;18.75;;;7.68;;
30048;SDS011;16879;50.852;15.602;2023-02-13T01:24:50;32.47;;;13.85;;
30048;SDS011;16879;50.852;15.602;2023-02-13T01:27:16;31.10;;;12.10;;
30048;SDS011;16879;50.852;15.602;2023-02-13T01:29:42;17.25;;;8.35;;
30048;SDS011;16879;50.852;15.602;2023-02-13T01:32:07;17.52;;;6.85;;
30048;SDS011;16879;50.852;15.602;2023-02-13T01:34:33;9.93;;;5.60;;
30048;SDS011;16879;50.852;15.602;2023-02-13T01:36:59;16.13;;;7.18;;
30048;SDS011;16879;50.852;15.602;2023-02-13T01:39:26;17.50;;;7.25;;
30048;SDS011;16879;50.852;15.602;2023-02-13T01:41:52;13.77;;;6.70;;
30048;SDS011;16879;50.852;15.602;2023-02-13T01:47:40;29.80;;;11.50;;
30048;SDS011;16879;50.852;15.602;2023-02-13T01:50:18;22.30;;;7.75;;
30048;SDS011;16879;50.852;15.602;2023-02-13T01:52:49;15.15;;;6.50;;
30048;SDS011;16879;50.852;15.602;2023-02-13T01:55:26;13.15;;;6.00;;
30048;SDS011;16879;50.852;15.602;2023-02-13T01:57:57;9.85;;;5.43;;
30048;SDS011;16879;50.852;15.602;2023-02-13T02:00:31;8.13;;;4.93;;
30048;SDS011;16879;50.852;15.602;2023-02-13T02:02:59;14.57;;;5.95;;
30048;SDS011;16879;50.852;15.602;2023-02-13T02:05:27;12.55;;;6.25;;
30048;SDS011;16879;50.852;15.602;2023-02-13T02:07:56;17.42;;;6.00;;
30048;SDS011;16879;50.852;15.602;2023-02-13T02:10:24;18.77;;;8.55;;
30048;SDS011;16879;50.852;15.602;2023-02-13T02:12:52;19.17;;;8.70;;
30048;SDS011;16879;50.852;15.602;2023-02-13T02:15:25;9.45;;;4.85;;
30048;SDS011;16879;50.852;15.602;2023-02-13T02:17:51;9.23;;;4.18;;
30048;SDS011;16879;50.852;15.602;2023-02-13T02:29:15;19.92;;;8.70;;
30048;SDS011;16879;50.852;15.602;2023-02-13T02:34:55;13.77;;;5.85;;
30048;SDS011;16879;50.852;15.602;2023-02-13T02:44:51;14.20;;;7.10;;
30048;SDS011;16879;50.852;15.602;2023-02-13T02:47:49;18.63;;;8.05;;
30048;SDS011;16879;50.852;15.602;2023-02-13T02:51:56;12.65;;;5.90;;
30048;SDS011;16879;50.852;15.602;2023-02-13T02:54:12;8.27;;;4.47;;
30048;SDS011;16879;50.852;15.602;2023-02-13T02:57:30;7.63;;;3.28;;
30048;SDS011;16879;50.852;15.602;2023-02-13T03:00:16;3.67;;;2.67;;
30048;SDS011;16879;50.852;15.602;2023-02-13T03:03:02;2.60;;;2.20;;
30048;SDS011;16879;50.852;15.602;2023-02-13T03:05:51;5.07;;;2.47;;
30048;SDS011;16879;50.852;15.602;2023-02-13T03:08:38;12.85;;;4.63;;
30048;SDS011;16879;50.852;15.602;2023-02-13T03:11:24;18.42;;;6.18;;
30048;SDS011;16879;50.852;15.602;2023-02-13T03:14:19;11.23;;;5.05;;
30048;SDS011;16879;50.852;15.602;2023-02-13T03:16:47;10.90;;;5.07;;
30048;SDS011;16879;50.852;15.602;2023-02-13T03:27:58;17.33;;;7.05;;
30048;SDS011;16879;50.852;15.602;2023-02-13T03:42:26;19.55;;;8.48;;
30048;SDS011;16879;50.852;15.602;2023-02-13T03:44:59;14.02;;;5.55;;
30048;SDS011;16879;50.852;15.602;2023-02-13T03:47:48;6.75;;;3.65;;
30048;SDS011;16879;50.852;15.602;2023-02-13T03:50:19;6.65;;;3.33;;
30048;SDS011;16879;50.852;15.602;2023-02-13T03:55:15;9.30;;;4.18;;
30048;SDS011;16879;50.852;15.602;2023-02-13T03:58:40;8.63;;;2.83;;
30048;SDS011;16879;50.852;15.602;2023-02-13T04:01:30;6.82;;;3.33;;
30048;SDS011;16879;50.852;15.602;2023-02-13T04:04:16;10.63;;;4.35;;
30048;SDS011;16879;50.852;15.602;2023-02-13T04:07:04;7.30;;;4.05;;
30048;SDS011;16879;50.852;15.602;2023-02-13T04:09:37;7.60;;;4.03;;
30048;SDS011;16879;50.852;15.602;2023-02-13T04:17:05;9.43;;;5.35;;
30048;SDS011;16879;50.852;15.602;2023-02-13T04:19:35;11.90;;;4.68;;
30048;SDS011;16879;50.852;15.602;2023-02-13T04:22:02;15.90;;;4.97;;
30048;SDS011;16879;50.852;15.602;2023-02-13T04:24:28;11.23;;;5.60;;
30048;SDS011;16879;50.852;15.602;2023-02-13T04:26:54;6.53;;;3.50;;
30048;SDS011;16879;50.852;15.602;2023-02-13T04:29:21;8.07;;;5.45;;
30048;SDS011;16879;50.852;15.602;2023-02-13T04:31:48;7.55;;;5.25;;
30048;SDS011;16879;50.852;15.602;2023-02-13T04:34:14;4.47;;;3.20;;
30048;SDS011;16879;50.852;15.602;2023-02-13T04:36:40;3.67;;;2.70;;
30048;SDS011;16879;50.852;15.602;2023-02-13T04:39:07;4.63;;;3.38;;
30048;SDS011;16879;50.852;15.602;2023-02-13T04:41:33;7.18;;;4.65;;
30048;SDS011;16879;50.852;15.602;2023-02-13T04:43:59;15.80;;;10.13;;
30048;SDS011;16879;50.852;15.602;2023-02-13T04:46:25;11.65;;;8.63;;
30048;SDS011;16879;50.852;15.602;2023-02-13T04:48:51;11.20;;;7.03;;
30048;SDS011;16879;50.852;15.602;2023-02-13T04:51:17;5.88;;;4.30;;
30048;SDS011;16879;50.852;15.602;2023-02-13T04:53:43;7.50;;;4.20;;
30048;SDS011;16879;50.852;15.602;2023-02-13T04:56:08;7.53;;;4.07;;
30048;SDS011;16879;50.852;15.602;2023-02-13T04:58:34;3.83;;;3.22;;
30048;SDS011;16879;50.852;15.602;2023-02-13T05:01:01;6.32;;;5.18;;
30048;SDS011;16879;50.852;15.602;2023-02-13T05:03:27;13.18;;;5.55;;
30048;SDS011;16879;50.852;15.602;2023-02-13T05:05:53;8.88;;;5.00;;
30048;SDS011;16879;50.852;15.602;2023-02-13T05:08:19;13.85;;;5.80;;
30048;SDS011;16879;50.852;15.602;2023-02-13T05:10:45;5.85;;;3.92;;
30048;SDS011;16879;50.852;15.602;2023-02-13T05:13:11;10.00;;;4.40;;
30048;SDS011;16879;50.852;15.602;2023-02-13T05:15:38;7.32;;;4.18;;
30048;SDS011;16879;50.852;15.602;2023-02-13T05:18:04;6.15;;;3.92;;
30048;SDS011;16879;50.852;15.602;2023-02-13T05:20:30;6.43;;;3.63;;
30048;SDS011;16879;50.852;15.602;2023-02-13T05:22:56;6.25;;;4.53;;
30048;SDS011;16879;50.852;15.602;2023-02-13T05:25:41;6.03;;;3.22;;
30048;SDS011;16879;50.852;15.602;2023-02-13T05:28:07;6.80;;;3.83;;
30048;SDS011;16879;50.852;15.602;2023-02-13T05:30:54;5.97;;;4.25;;
30048;SDS011;16879;50.852;15.602;2023-02-13T05:33:20;4.80;;;3.17;;
30048;SDS011;16879;50.852;15.602;2023-02-13T05:35:46;6.22;;;3.60;;
30048;SDS011;16879;50.852;15.602;2023-02-13T05:38:12;4.75;;;3.80;;
30048;SDS011;16879;50.852;15.602;2023-02-13T05:40:37;4.30;;;2.97;;
30048;SDS011;16879;50.852;15.602;2023-02-13T05:43:04;5.47;;;3.13;;
30048;SDS011;16879;50.852;15.602;2023-02-13T05:45:29;5.20;;;3.47;;
30048;SDS011;16879;50.852;15.602;2023-02-13T05:47:55;5.75;;;3.70;;
30048;SDS011;16879;50.852;15.602;2023-02-13T05:50:22;6.07;;;3.70;;
30048;SDS011;16879;50.852;15.602;2023-02-13T05:52:47;6.70;;;3.90;;
30048;SDS011;16879;50.852;15.602;2023-02-13T05:55:14;5.00;;;3.50;;
30048;SDS011;16879;50.852;15.602;2023-02-13T05:57:40;7.93;;;5.15;;
30048;SDS011;16879;50.852;15.602;2023-02-13T06:00:06;8.60;;;5.15;;
30048;SDS011;16879;50.852;15.602;2023-02-13T06:02:32;9.15;;;5.05;;
30048;SDS011;16879;50.852;15.602;2023-02-13T06:04:58;7.63;;;4.88;;
30048;SDS011;16879;50.852;15.602;2023-02-13T06:07:24;5.20;;;3.95;;
30048;SDS011;16879;50.852;15.602;2023-02-13T06:09:50;6.85;;;4.40;;
30048;SDS011;16879;50.852;15.602;2023-02-13T06:12:16;6.97;;;4.22;;
30048;SDS011;16879;50.852;15.602;2023-02-13T06:14:42;8.18;;;5.40;;
30048;SDS011;16879;50.852;15.602;2023-02-13T06:17:07;5.80;;;4.45;;
30048;SDS011;16879;50.852;15.602;2023-02-13T06:19:33;8.52;;;5.15;;
30048;SDS011;16879;50.852;15.602;2023-02-13T06:22:00;7.30;;;5.28;;
30048;SDS011;16879;50.852;15.602;2023-02-13T06:24:25;10.43;;;6.70;;
30048;SDS011;16879;50.852;15.602;2023-02-13T06:26:52;12.32;;;7.93;;
30048;SDS011;16879;50.852;15.602;2023-02-13T06:29:17;15.48;;;8.35;;
30048;SDS011;16879;50.852;15.602;2023-02-13T06:31:43;18.95;;;10.23;;
30048;SDS011;16879;50.852;15.602;2023-02-13T06:34:09;24.90;;;13.50;;
30048;SDS011;16879;50.852;15.602;2023-02-13T06:36:35;25.88;;;14.23;;
30048;SDS011;16879;50.852;15.602;2023-02-13T06:39:02;22.25;;;11.45;;
30048;SDS011;16879;50.852;15.602;2023-02-13T06:41:28;18.58;;;10.40;;
30048;SDS011;16879;50.852;15.602;2023-02-13T06:43:55;16.67;;;9.13;;
30048;SDS011;16879;50.852;15.602;2023-02-13T06:46:21;15.25;;;8.63;;
30048;SDS011;16879;50.852;15.602;2023-02-13T06:48:47;37.97;;;13.57;;
30048;SDS011;16879;50.852;15.602;2023-02-13T06:51:13;48.45;;;19.42;;
30048;SDS011;16879;50.852;15.602;2023-02-13T06:53:39;57.28;;;20.80;;
30048;SDS011;16879;50.852;15.602;2023-02-13T06:56:05;40.50;;;19.10;;
30048;SDS011;16879;50.852;15.602;2023-02-13T06:58:31;30.00;;;14.20;;
30048;SDS011;16879;50.852;15.602;2023-02-13T07:00:58;19.42;;;10.05;;
30048;SDS011;16879;50.852;15.602;2023-02-13T07:03:24;15.43;;;8.68;;
30048;SDS011;16879;50.852;15.602;2023-02-13T07:05:50;15.43;;;6.85;;
30048;SDS011;16879;50.852;15.602;2023-02-13T07:08:16;11.10;;;6.13;;
30048;SDS011;16879;50.852;15.602;2023-02-13T07:13:43;23.20;;;8.68;;
30048;SDS011;16879;50.852;15.602;2023-02-13T07:16:10;27.67;;;11.07;;
30048;SDS011;16879;50.852;15.602;2023-02-13T07:18:36;29.48;;;12.82;;
30048;SDS011;16879;50.852;15.602;2023-02-13T07:21:02;29.63;;;12.57;;
30048;SDS011;16879;50.852;15.602;2023-02-13T07:23:29;19.42;;;9.05;;
30048;SDS011;16879;50.852;15.602;2023-02-13T07:25:57;14.13;;;7.47;;
30048;SDS011;16879;50.852;15.602;2023-02-13T07:28:24;11.80;;;6.00;;
30048;SDS011;16879;50.852;15.602;2023-02-13T07:30:50;14.30;;;7.13;;
30048;SDS011;16879;50.852;15.602;2023-02-13T07:33:16;16.88;;;9.05;;
30048;SDS011;16879;50.852;15.602;2023-02-13T07:35:46;16.52;;;8.95;;
30048;SDS011;16879;50.852;15.602;2023-02-13T07:38:13;20.52;;;9.93;;
30048;SDS011;16879;50.852;15.602;2023-02-13T07:40:39;18.58;;;8.85;;
30048;SDS011;16879;50.852;15.602;2023-02-13T07:43:05;13.30;;;7.05;;
30048;SDS011;16879;50.852;15.602;2023-02-13T07:45:31;13.02;;;7.63;;
30048;SDS011;16879;50.852;15.602;2023-02-13T07:47:58;11.43;;;6.78;;
30048;SDS011;16879;50.852;15.602;2023-02-13T07:50:24;11.18;;;7.15;;
30048;SDS011;16879;50.852;15.602;2023-02-13T07:52:58;20.48;;;10.93;;
30048;SDS011;16879;50.852;15.602;2023-02-13T07:55:25;18.20;;;11.05;;
30048;SDS011;16879;50.852;15.602;2023-02-13T07:57:52;17.55;;;11.45;;
30048;SDS011;16879;50.852;15.602;2023-02-13T08:00:19;19.73;;;11.68;;
30048;SDS011;16879;50.852;15.602;2023-02-13T08:02:45;24.63;;;12.45;;
30048;SDS011;16879;50.852;15.602;2023-02-13T08:05:12;20.25;;;12.25;;
30048;SDS011;16879;50.852;15.602;2023-02-13T08:07:38;25.30;;;15.00;;
30048;SDS011;16879;50.852;15.602;2023-02-13T08:10:05;22.45;;;13.10;;
30048;SDS011;16879;50.852;15.602;2023-02-13T08:12:51;20.83;;;12.52;;
30048;SDS011;16879;50.852;15.602;2023-02-13T08:15:18;21.58;;;11.82;;
30048;SDS011;16879;50.852;15.602;2023-02-13T08:17:44;19.25;;;11.00;;
30048;SDS011;16879;50.852;15.602;2023-02-13T08:20:10;47.30;;;27.67;;
30048;SDS011;16879;50.852;15.602;2023-02-13T08:22:37;29.13;;;19.40;;
30048;SDS011;16879;50.852;15.602;2023-02-13T08:25:07;31.45;;;21.58;;
30048;SDS011;16879;50.852;15.602;2023-02-13T08:27:33;23.80;;;15.73;;
30048;SDS011;16879;50.852;15.602;2023-02-13T08:29:59;26.40;;;16.67;;
30048;SDS011;16879;50.852;15.602;2023-02-13T08:32:28;21.92;;;15.80;;
30048;SDS011;16879;50.852;15.602;2023-02-13T08:34:55;28.40;;;16.15;;
30048;SDS011;16879;50.852;15.602;2023-02-13T08:37:21;27.48;;;17.00;;
30048;SDS011;16879;50.852;15.602;2023-02-13T08:39:47;34.63;;;21.33;;
30048;SDS011;16879;50.852;15.602;2023-02-13T08:42:13;49.45;;;25.50;;
30048;SDS011;16879;50.852;15.602;2023-02-13T08:44:39;28.33;;;15.48;;
30048;SDS011;16879;50.852;15.602;2023-02-13T08:47:07;17.25;;;8.98;;
30048;SDS011;16879;50.852;15.602;2023-02-13T08:49:33;10.50;;;6.50;;
30048;SDS011;16879;50.852;15.602;2023-02-13T08:52:00;7.93;;;4.63;;
30048;SDS011;16879;50.852;15.602;2023-02-13T08:54:27;9.00;;;4.75;;
30048;SDS011;16879;50.852;15.602;2023-02-13T08:56:53;8.68;;;5.00;;
30048;SDS011;16879;50.852;15.602;2023-02-13T08:59:19;5.05;;;3.22;;
30048;SDS011;16879;50.852;15.602;2023-02-13T09:01:45;4.10;;;3.40;;
30048;SDS011;16879;50.852;15.602;2023-02-13T09:04:11;4.72;;;2.95;;
30048;SDS011;16879;50.852;15.602;2023-02-13T09:06:42;5.93;;;3.65;;
30048;SDS011;16879;50.852;15.602;2023-02-13T09:11:44;2.42;;;2.08;;
30048;SDS011;16879;50.852;15.602;2023-02-13T09:14:10;2.40;;;1.85;;
30048;SDS011;16879;50.852;15.602;2023-02-13T09:16:36;4.10;;;2.60;;
30048;SDS011;16879;50.852;15.602;2023-02-13T09:19:02;1.92;;;1.83;;
30048;SDS011;16879;50.852;15.602;2023-02-13T09:21:28;2.05;;;1.83;;
30048;SDS011;16879;50.852;15.602;2023-02-13T09:23:55;1.98;;;1.65;;
30048;SDS011;16879;50.852;15.602;2023-02-13T09:26:21;2.47;;;2.00;;
30048;SDS011;16879;50.852;15.602;2023-02-13T09:28:47;2.03;;;1.70;;
30048;SDS011;16879;50.852;15.602;2023-02-13T09:31:14;2.22;;;1.92;;
30048;SDS011;16879;50.852;15.602;2023-02-13T09:33:44;2.42;;;2.15;;
30048;SDS011;16879;50.852;15.602;2023-02-13T09:36:12;2.17;;;1.95;;
30048;SDS011;16879;50.852;15.602;2023-02-13T09:38:40;5.13;;;2.53;;
30048;SDS011;16879;50.852;15.602;2023-02-13T09:46:16;4.20;;;2.33;;
30048;SDS011;16879;50.852;15.602;2023-02-13T09:48:46;6.13;;;2.72;;
30048;SDS011;16879;50.852;15.602;2023-02-13T09:51:16;10.68;;;4.35;;
30048;SDS011;16879;50.852;15.602;2023-02-13T09:56:23;1.67;;;1.58;;
30048;SDS011;16879;50.852;15.602;2023-02-13T09:59:02;3.67;;;2.17;;
30048;SDS011;16879;50.852;15.602;2023-02-13T10:01:43;2.40;;;1.95;;
30048;SDS011;16879;50.852;15.602;2023-02-13T10:04:15;1.95;;;1.58;;
30048;SDS011;16879;50.852;15.602;2023-02-13T10:07:05;1.98;;;1.83;;
30048;SDS011;16879;50.852;15.602;2023-02-13T10:12:41;4.50;;;2.75;;
30048;SDS011;16879;50.852;15.602;2023-02-13T10:15:47;2.80;;;2.42;;
30048;SDS011;16879;50.852;15.602;2023-02-13T10:18:40;2.78;;;2.30;;
30048;SDS011;16879;50.852;15.602;2023-02-13T10:21:07;1.77;;;1.60;;
30048;SDS011;16879;50.852;15.602;2023-02-13T10:23:40;1.45;;;1.35;;
30048;SDS011;16879;50.852;15.602;2023-02-13T10:26:24;2.60;;;1.98;;
30048;SDS011;16879;50.852;15.602;2023-02-13T10:29:09;2.03;;;1.58;;
30048;SDS011;16879;50.852;15.602;2023-02-13T10:32:04;1.55;;;1.40;;
30048;SDS011;16879;50.852;15.602;2023-02-13T10:34:34;3.17;;;2.35;;
30048;SDS011;16879;50.852;15.602;2023-02-13T10:37:02;4.57;;;2.90;;
30048;SDS011;16879;50.852;15.602;2023-02-13T10:39:44;3.42;;;2.95;;
30048;SDS011;16879;50.852;15.602;2023-02-13T10:50:31;2.15;;;1.95;;
30048;SDS011;16879;50.852;15.602;2023-02-13T11:01:12;5.28;;;2.13;;
30048;SDS011;16879;50.852;15.602;2023-02-13T11:03:41;2.60;;;2.40;;
30048;SDS011;16879;50.852;15.602;2023-02-13T11:06:11;5.07;;;3.17;;
30048;SDS011;16879;50.852;15.602;2023-02-13T11:08:42;2.63;;;2.25;;
30048;SDS011;16879;50.852;15.602;2023-02-13T11:14:09;3.42;;;2.60;;
30048;SDS011;16879;50.852;15.602;2023-02-13T11:16:40;4.05;;;2.25;;
30048;SDS011;16879;50.852;15.602;2023-02-13T11:19:19;4.03;;;2.33;;
30048;SDS011;16879;50.852;15.602;2023-02-13T11:21:53;2.33;;;1.98;;
30048;SDS011;16879;50.852;15.602;2023-02-13T11:24:25;7.10;;;4.13;;
30048;SDS011;16879;50.852;15.602;2023-02-13T11:26:54;5.65;;;3.58;;
30048;SDS011;16879;50.852;15.602;2023-02-13T11:29:28;3.53;;;2.05;;
30048;SDS011;16879;50.852;15.602;2023-02-13T11:32:00;2.08;;;1.80;;
30048;SDS011;16879;50.852;15.602;2023-02-13T11:34:30;2.25;;;2.00;;
30048;SDS011;16879;50.852;15.602;2023-02-13T11:37:13;2.30;;;2.10;;
30048;SDS011;16879;50.852;15.602;2023-02-13T11:39:42;2.63;;;1.90;;
30048;SDS011;16879;50.852;15.602;2023-02-13T11:44:59;2.05;;;1.30;;
30048;SDS011;16879;50.852;15.602;2023-02-13T11:47:40;1.42;;;1.33;;
30048;SDS011;16879;50.852;15.602;2023-02-13T11:52:51;1.67;;;1.52;;
30048;SDS011;16879;50.852;15.602;2023-02-13T11:55:35;3.53;;;2.10;;
30048;SDS011;16879;50.852;15.602;2023-02-13T11:58:04;1.48;;;1.38;;
30048;SDS011;16879;50.852;15.602;2023-02-13T12:00:49;2.97;;;1.88;;
30048;SDS011;16879;50.852;15.602;2023-02-13T12:03:31;2.63;;;1.90;;
30048;SDS011;16879;50.852;15.602;2023-02-13T12:08:43;1.60;;;1.50;;
30048;SDS011;16879;50.852;15.602;2023-02-13T12:13:48;3.75;;;2.50;;
30048;SDS011;16879;50.852;15.602;2023-02-13T12:18:43;2.05;;;1.83;;
30048;SDS011;16879;50.852;15.602;2023-02-13T12:26:30;1.17;;;1.13;;
30048;SDS011;16879;50.852;15.602;2023-02-13T12:29:19;1.90;;;1.80;;
30048;SDS011;16879;50.852;15.602;2023-02-13T12:35:00;1.75;;;1.65;;
30048;SDS011;16879;50.852;15.602;2023-02-13T12:38:12;2.33;;;2.13;;
30048;SDS011;16879;50.852;15.602;2023-02-13T12:48:30;3.55;;;2.70;;
30048;SDS011;16879;50.852;15.602;2023-02-13T12:56:35;3.38;;;3.08;;
30048;SDS011;16879;50.852;15.602;2023-02-13T13:04:13;4.47;;;3.65;;
30048;SDS011;16879;50.852;15.602;2023-02-13T13:15:39;5.68;;;4.45;;
30048;SDS011;16879;50.852;15.602;2023-02-13T13:18:39;6.60;;;5.30;;
30048;SDS011;16879;50.852;15.602;2023-02-13T13:27:02;6.85;;;5.47;;
30048;SDS011;16879;50.852;15.602;2023-02-13T13:29:41;5.80;;;5.20;;
30048;SDS011;16879;50.852;15.602;2023-02-13T13:32:12;5.85;;;4.90;;
30048;SDS011;16879;50.852;15.602;2023-02-13T13:34:43;6.13;;;4.95;;
30048;SDS011;16879;50.852;15.602;2023-02-13T13:42:46;7.80;;;5.38;;
30048;SDS011;16879;50.852;15.602;2023-02-13T13:51:44;6.22;;;5.22;;
30048;SDS011;16879;50.852;15.602;2023-02-13T14:07:38;14.68;;;11.02;;
30048;SDS011;16879;50.852;15.602;2023-02-13T14:10:11;12.07;;;9.48;;
30048;SDS011;16879;50.852;15.602;2023-02-13T14:31:30;46.95;;;23.33;;
30048;SDS011;16879;50.852;15.602;2023-02-13T14:34:06;34.33;;;18.85;;
30048;SDS011;16879;50.852;15.602;2023-02-13T14:36:34;30.90;;;16.70;;
30048;SDS011;16879;50.852;15.602;2023-02-13T14:44:30;23.38;;;16.23;;
30048;SDS011;16879;50.852;15.602;2023-02-13T14:46:57;25.10;;;17.00;;
30048;SDS011;16879;50.852;15.602;2023-02-13T14:49:28;26.70;;;16.42;;
30048;SDS011;16879;50.852;15.602;2023-02-13T14:52:04;39.75;;;25.58;;
30048;SDS011;16879;50.852;15.602;2023-02-13T14:57:09;51.80;;;30.08;;
30048;SDS011;16879;50.852;15.602;2023-02-13T14:59:38;39.33;;;23.20;;
30048;SDS011;16879;50.852;15.602;2023-02-13T15:02:13;52.75;;;29.50;;
30048;SDS011;16879;50.852;15.602;2023-02-13T15:04:44;47.13;;;28.27;;
30048;SDS011;16879;50.852;15.602;2023-02-13T15:07:14;57.88;;;33.83;;
30048;SDS011;16879;50.852;15.602;2023-02-13T15:09:50;52.13;;;32.72;;
30048;SDS011;16879;50.852;15.602;2023-02-13T15:12:23;56.50;;;33.35;;
30048;SDS011;16879;50.852;15.602;2023-02-13T15:14:49;49.20;;;29.85;;
30048;SDS011;16879;50.852;15.602;2023-02-13T15:17:17;40.25;;;25.35;;
30048;SDS011;16879;50.852;15.602;2023-02-13T15:19:49;37.00;;;19.67;;
30048;SDS011;16879;50.852;15.602;2023-02-13T15:22:34;31.35;;;19.20;;
30048;SDS011;16879;50.852;15.602;2023-02-13T15:25:02;40.72;;;22.70;;
30048;SDS011;16879;50.852;15.602;2023-02-13T15:27:31;65.53;;;34.95;;
30048;SDS011;16879;50.852;15.602;2023-02-13T15:30:01;55.13;;;32.47;;
30048;SDS011;16879;50.852;15.602;2023-02-13T15:32:41;117.50;;;72.22;;
30048;SDS011;16879;50.852;15.602;2023-02-13T15:35:41;152.30;;;82.13;;
30048;SDS011;16879;50.852;15.602;2023-02-13T15:40:54;61.90;;;32.25;;
30048;SDS011;16879;50.852;15.602;2023-02-13T15:43:31;94.20;;;46.55;;
30048;SDS011;16879;50.852;15.602;2023-02-13T15:48:25;39.60;;;21.35;;
30048;SDS011;16879;50.852;15.602;2023-02-13T15:50:52;38.08;;;19.40;;
30048;SDS011;16879;50.852;15.602;2023-02-13T15:53:19;54.97;;;26.17;;
30048;SDS011;16879;50.852;15.602;2023-02-13T15:55:56;40.63;;;20.98;;
30048;SDS011;16879;50.852;15.602;2023-02-13T15:58:33;36.00;;;19.20;;
30048;SDS011;16879;50.852;15.602;2023-02-13T16:01:01;33.67;;;16.88;;
30048;SDS011;16879;50.852;15.602;2023-02-13T16:03:28;28.60;;;16.02;;
30048;SDS011;16879;50.852;15.602;2023-02-13T16:05:56;30.05;;;14.25;;
30048;SDS011;16879;50.852;15.602;2023-02-13T16:08:29;18.83;;;11.80;;
30048;SDS011;16879;50.852;15.602;2023-02-13T16:16:16;17.40;;;10.38;;
30048;SDS011;16879;50.852;15.602;2023-02-13T16:18:43;15.30;;;9.35;;
30048;SDS011;16879;50.852;15.602;2023-02-13T16:21:09;19.40;;;14.88;;
30048;SDS011;16879;50.852;15.602;2023-02-13T16:23:36;28.80;;;19.02;;
30048;SDS011;16879;50.852;15.602;2023-02-13T16:26:03;15.88;;;10.63;;
30048;SDS011;16879;50.852;15.602;2023-02-13T16:28:37;12.60;;;9.63;;
30048;SDS011;16879;50.852;15.602;2023-02-13T16:31:03;14.07;;;10.85;;
30048;SDS011;16879;50.852;15.602;2023-02-13T16:33:30;14.52;;;11.15;;
30048;SDS011;16879;50.852;15.602;2023-02-13T16:36:00;14.18;;;9.57;;
30048;SDS011;16879;50.852;15.602;2023-02-13T16:38:42;14.47;;;10.43;;
30048;SDS011;16879;50.852;15.602;2023-02-13T16:43:51;21.33;;;16.42;;
30048;SDS011;16879;50.852;15.602;2023-02-13T16:48:57;16.40;;;13.02;;
30048;SDS011;16879;50.852;15.602;2023-02-13T16:51:28;25.17;;;15.65;;
30048;SDS011;16879;50.852;15.602;2023-02-13T16:59:25;20.35;;;13.90;;
30048;SDS011;16879;50.852;15.602;2023-02-13T17:04:40;24.30;;;14.00;;
30048;SDS011;16879;50.852;15.602;2023-02-13T17:07:10;34.47;;;21.38;;
30048;SDS011;16879;50.852;15.602;2023-02-13T17:09:37;23.42;;;15.75;;
30048;SDS011;16879;50.852;15.602;2023-02-13T17:12:03;32.70;;;18.35;;
30048;SDS011;16879;50.852;15.602;2023-02-13T17:14:29;20.65;;;13.65;;
30048;SDS011;16879;50.852;15.602;2023-02-13T17:16:56;18.65;;;10.52;;
30048;SDS011;16879;50.852;15.602;2023-02-13T17:19:22;23.85;;;15.15;;
30048;SDS011;16879;50.852;15.602;2023-02-13T17:21:48;18.98;;;11.93;;
30048;SDS011;16879;50.852;15.602;2023-02-13T17:24:17;21.23;;;15.68;;
30048;SDS011;16879;50.852;15.602;2023-02-13T17:26:43;19.45;;;11.88;;
30048;SDS011;16879;50.852;15.602;2023-02-13T17:29:10;29.70;;;19.40;;
30048;SDS011;16879;50.852;15.602;2023-02-13T17:31:37;25.05;;;15.07;;
30048;SDS011;16879;50.852;15.602;2023-02-13T17:34:04;22.02;;;13.57;;
30048;SDS011;16879;50.852;15.602;2023-02-13T17:36:30;15.60;;;9.93;;
30048;SDS011;16879;50.852;15.602;2023-02-13T17:38:58;15.32;;;8.95;;
30048;SDS011;16879;50.852;15.602;2023-02-13T17:41:24;12.73;;;8.73;;
30048;SDS011;16879;50.852;15.602;2023-02-13T17:43:51;28.35;;;20.48;;
30048;SDS011;16879;50.852;15.602;2023-02-13T17:46:17;16.33;;;11.13;;
30048;SDS011;16879;50.852;15.602;2023-02-13T17:48:44;11.50;;;8.85;;
30048;SDS011;16879;50.852;15.602;2023-02-13T17:51:13;10.23;;;7.13;;
30048;SDS011;16879;50.852;15.602;2023-02-13T17:53:40;10.50;;;7.50;;
30048;SDS011;16879;50.852;15.602;2023-02-13T17:56:08;20.70;;;13.68;;
30048;SDS011;16879;50.852;15.602;2023-02-13T17:58:38;17.25;;;12.65;;
30048;SDS011;16879;50.852;15.602;2023-02-13T18:01:04;14.98;;;10.75;;
30048;SDS011;16879;50.852;15.602;2023-02-13T18:03:30;10.63;;;8.18;;
30048;SDS011;16879;50.852;15.602;2023-02-13T18:05:58;12.60;;;8.85;;
30048;SDS011;16879;50.852;15.602;2023-02-13T18:08:25;23.42;;;19.77;;
30048;SDS011;16879;50.852;15.602;2023-02-13T18:10:52;19.23;;;13.30;;
30048;SDS011;16879;50.852;15.602;2023-02-13T18:13:18;23.75;;;19.42;;
30048;SDS011;16879;50.852;15.602;2023-02-13T18:15:47;19.95;;;15.18;;
30048;SDS011;16879;50.852;15.602;2023-02-13T18:18:14;14.35;;;10.13;;
30048;SDS011;16879;50.852;15.602;2023-02-13T18:20:41;11.82;;;9.07;;